sensor_id;sensor_type;location;lat;lon;timestamp;pressure;altitude;pressure_sealevel;temperature;humidity
68193;BME280;55012;47.562;18.414;2022-12-01T00:00:52;100356.28;;;4.26;100.00
68193;BME280;55012;47.562;18.414;2022-12-01T00:03:18;100352.28;;;4.23;100.00
68193;BME280;55012;47.562;18.414;2022-12-01T00:05:43;100362.72;;;4.20;100.00
68193;BME280;55012;47.562;18.414;2022-12-01T00:08:09;100361.41;;;4.12;100.00
68193;BME280;55012;47.562;18.414;2022-12-01T00:10:34;100357.44;;;4.10;100.00
68193;BME280;55012;47.562;18.414;2022-12-01T00:13:02;100363.59;;;4.05;100.00
68193;BME280;55012;47.562;18.414;2022-12-01T00:15:33;100367.66;;;3.98;100.00
68193;BME280;55012;47.562;18.414;2022-12-01T00:17:58;100367.94;;;3.91;100.00
68193;BME280;55012;47.562;18.414;2022-12-01T00:20:24;100373.31;;;3.86;100.00
68193;BME280;55012;47.562;18.414;2022-12-01T00:22:49;100362.34;;;3.77;100.00
68193;BME280;55012;47.562;18.414;2022-12-01T00:25:16;100352.19;;;3.74;100.00
68193;BME280;55012;47.562;18.414;2022-12-01T00:27:42;100361.84;;;3.75;100.00
68193;BME280;55012;47.562;18.414;2022-12-01T00:30:11;100362.09;;;3.74;100.00
68193;BME280;55012;47.562;18.414;2022-12-01T00:32:37;100373.06;;;3.72;100.00
68193;BME280;55012;47.562;18.414;2022-12-01T00:35:03;100371.75;;;3.64;100.00
68193;BME280;55012;47.562;18.414;2022-12-01T00:37:30;100372.28;;;3.61;100.00
68193;BME280;55012;47.562;18.414;2022-12-01T00:39:57;100374.72;;;3.58;100.00
68193;BME280;55012;47.562;18.414;2022-12-01T00:42:22;100370.97;;;3.54;100.00
68193;BME280;55012;47.562;18.414;2022-12-01T00:44:48;100374.72;;;3.53;100.00
68193;BME280;55012;47.562;18.414;2022-12-01T00:47:13;100383.56;;;3.48;100.00
68193;BME280;55012;47.562;18.414;2022-12-01T00:49:39;100377.69;;;3.41;100.00
68193;BME280;55012;47.562;18.414;2022-12-01T00:52:04;100381.41;;;3.35;100.00
68193;BME280;55012;47.562;18.414;2022-12-01T00:54:30;100375.25;;;3.29;100.00
68193;BME280;55012;47.562;18.414;2022-12-01T00:56:57;100380.91;;;3.23;100.00
68193;BME280;55012;47.562;18.414;2022-12-01T00:59:23;100376.34;;;3.13;100.00
68193;BME280;55012;47.562;18.414;2022-12-01T01:01:48;100372.31;;;3.05;100.00
68193;BME280;55012;47.562;18.414;2022-12-01T01:04:14;100372.06;;;2.97;100.00
68193;BME280;55012;47.562;18.414;2022-12-01T01:06:40;100359.22;;;2.89;100.00
68193;BME280;55012;47.562;18.414;2022-12-01T01:09:08;100361.09;;;2.83;100.00
68193;BME280;55012;47.562;18.414;2022-12-01T01:11:33;100361.09;;;2.78;100.00
68193;BME280;55012;47.562;18.414;2022-12-01T01:13:59;100367.22;;;2.78;100.00
68193;BME280;55012;47.562;18.414;2022-12-01T01:16:24;100358.41;;;2.78;100.00
68193;BME280;55012;47.562;18.414;2022-12-01T01:18:51;100362.69;;;2.79;100.00
68193;BME280;55012;47.562;18.414;2022-12-01T01:21:18;100362.97;;;2.88;100.00
68193;BME280;55012;47.562;18.414;2022-12-01T01:23:45;100368.59;;;2.91;100.00
68193;BME280;55012;47.562;18.414;2022-12-01T01:26:25;100371.00;;;2.93;100.00
68193;BME280;55012;47.562;18.414;2022-12-01T01:28:51;100368.06;;;2.99;100.00
68193;BME280;55012;47.562;18.414;2022-12-01T01:31:19;100376.59;;;3.01;100.00
68193;BME280;55012;47.562;18.414;2022-12-01T01:33:46;100380.09;;;3.02;100.00
68193;BME280;55012;47.562;18.414;2022-12-01T01:36:13;100381.16;;;3.01;100.00
68193;BME280;55012;47.562;18.414;2022-12-01T01:38:38;100380.06;;;2.97;100.00
68193;BME280;55012;47.562;18.414;2022-12-01T01:41:04;100392.13;;;2.99;100.00
68193;BME280;55012;47.562;18.414;2022-12-01T01:43:48;100388.66;;;2.99;100.00
68193;BME280;55012;47.562;18.414;2022-12-01T01:46:19;100395.03;;;2.98;100.00
68193;BME280;55012;47.562;18.414;2022-12-01T01:49:09;100393.69;;;2.95;100.00
68193;BME280;55012;47.562;18.414;2022-12-01T01:51:48;100390.22;;;2.95;100.00
68193;BME280;55012;47.562;18.414;2022-12-01T01:54:36;100393.44;;;2.92;100.00
68193;BME280;55012;47.562;18.414;2022-12-01T01:57:05;100394.78;;;2.99;100.00
68193;BME280;55012;47.562;18.414;2022-12-01T01:59:38;100400.38;;;2.98;100.00
68193;BME280;55012;47.562;18.414;2022-12-01T02:02:08;100392.91;;;2.95;100.00
68193;BME280;55012;47.562;18.414;2022-12-01T02:04:37;100399.31;;;2.89;100.00
68193;BME280;55012;47.562;18.414;2022-12-01T02:07:03;100392.88;;;2.79;100.00
68193;BME280;55012;47.562;18.414;2022-12-01T02:09:29;100403.03;;;2.77;100.00
68193;BME280;55012;47.562;18.414;2022-12-01T02:17:44;100403.00;;;2.62;100.00
68193;BME280;55012;47.562;18.414;2022-12-01T02:31:28;100371.41;;;2.39;100.00
68193;BME280;55012;47.562;18.414;2022-12-01T02:34:13;100379.41;;;2.34;100.00
68193;BME280;55012;47.562;18.414;2022-12-01T02:36:51;100365.25;;;2.28;100.00
68193;BME280;55012;47.562;18.414;2022-12-01T02:39:36;100376.19;;;2.27;100.00
68193;BME280;55012;47.562;18.414;2022-12-01T02:42:08;100364.16;;;2.24;100.00
68193;BME280;55012;47.562;18.414;2022-12-01T02:44:42;100365.78;;;2.25;100.00
68193;BME280;55012;47.562;18.414;2022-12-01T02:47:14;100362.53;;;2.23;100.00
68193;BME280;55012;47.562;18.414;2022-12-01T02:49:45;100360.13;;;2.21;100.00
68193;BME280;55012;47.562;18.414;2022-12-01T02:52:13;100359.88;;;2.23;100.00
68193;BME280;55012;47.562;18.414;2022-12-01T02:54:40;100356.41;;;2.22;100.00
68193;BME280;55012;47.562;18.414;2022-12-01T02:57:16;100356.41;;;2.22;100.00
68193;BME280;55012;47.562;18.414;2022-12-01T02:59:44;100363.38;;;2.23;100.00
68193;BME280;55012;47.562;18.414;2022-12-01T03:02:21;100363.59;;;2.22;100.00
68193;BME280;55012;47.562;18.414;2022-12-01T03:05:09;100352.41;;;2.20;100.00
68193;BME280;55012;47.562;18.414;2022-12-01T03:10:50;100339.06;;;2.20;100.00
68193;BME280;55012;47.562;18.414;2022-12-01T03:13:41;100334.78;;;2.19;100.00
68193;BME280;55012;47.562;18.414;2022-12-01T03:16:15;100346.53;;;2.18;100.00
68193;BME280;55012;47.562;18.414;2022-12-01T03:19:06;100341.47;;;2.16;100.00
68193;BME280;55012;47.562;18.414;2022-12-01T03:21:37;100342.50;;;2.10;100.00
68193;BME280;55012;47.562;18.414;2022-12-01T03:24:13;100346.72;;;2.06;100.00
68193;BME280;55012;47.562;18.414;2022-12-01T03:26:40;100348.06;;;2.04;100.00
68193;BME280;55012;47.562;18.414;2022-12-01T03:29:22;100341.66;;;2.00;100.00
68193;BME280;55012;47.562;18.414;2022-12-01T03:31:53;100348.28;;;1.97;100.00
68193;BME280;55012;47.562;18.414;2022-12-01T03:37:20;100348.25;;;1.87;100.00
68193;BME280;55012;47.562;18.414;2022-12-01T03:39:47;100357.59;;;1.84;100.00
68193;BME280;55012;47.562;18.414;2022-12-01T03:42:19;100360.75;;;1.76;100.00
68193;BME280;55012;47.562;18.414;2022-12-01T03:44:49;100362.31;;;1.72;100.00
68193;BME280;55012;47.562;18.414;2022-12-01T03:47:18;100356.41;;;1.65;100.00
68193;BME280;55012;47.562;18.414;2022-12-01T03:49:46;100363.38;;;1.66;100.00
68193;BME280;55012;47.562;18.414;2022-12-01T03:55:11;100358.03;;;1.66;100.00
68193;BME280;55012;47.562;18.414;2022-12-01T03:57:46;100354.03;;;1.68;100.00
68193;BME280;55012;47.562;18.414;2022-12-01T04:00:14;100346.31;;;1.67;100.00
68193;BME280;55012;47.562;18.414;2022-12-01T04:02:41;100357.78;;;1.67;100.00
68193;BME280;55012;47.562;18.414;2022-12-01T04:05:07;100356.97;;;1.67;100.00
68193;BME280;55012;47.562;18.414;2022-12-01T04:07:36;100355.59;;;1.64;100.00
68193;BME280;55012;47.562;18.414;2022-12-01T04:10:03;100362.25;;;1.62;100.00
68193;BME280;55012;47.562;18.414;2022-12-01T04:12:29;100361.47;;;1.61;100.00
68193;BME280;55012;47.562;18.414;2022-12-01T04:14:58;100360.13;;;1.59;100.00
68193;BME280;55012;47.562;18.414;2022-12-01T04:17:25;100355.59;;;1.59;100.00
68193;BME280;55012;47.562;18.414;2022-12-01T04:19:50;100360.38;;;1.57;100.00
68193;BME280;55012;47.562;18.414;2022-12-01T04:22:16;100357.72;;;1.57;100.00
68193;BME280;55012;47.562;18.414;2022-12-01T04:24:42;100364.09;;;1.56;100.00
68193;BME280;55012;47.562;18.414;2022-12-01T04:27:08;100365.41;;;1.54;100.00
68193;BME280;55012;47.562;18.414;2022-12-01T04:29:33;100370.75;;;1.54;100.00
68193;BME280;55012;47.562;18.414;2022-12-01T04:31:59;100375.28;;;1.53;100.00
68193;BME280;55012;47.562;18.414;2022-12-01T04:34:24;100375.28;;;1.53;100.00
68193;BME280;55012;47.562;18.414;2022-12-01T04:36:50;100376.09;;;1.54;100.00
68193;BME280;55012;47.562;18.414;2022-12-01T04:39:15;100376.09;;;1.54;100.00
68193;BME280;55012;47.562;18.414;2022-12-01T04:41:41;100368.59;;;1.51;100.00
68193;BME280;55012;47.562;18.414;2022-12-01T04:44:08;100376.34;;;1.52;100.00
68193;BME280;55012;47.562;18.414;2022-12-01T04:46:34;100377.69;;;1.55;100.00
68193;BME280;55012;47.562;18.414;2022-12-01T04:48:59;100367.56;;;1.57;100.00
68193;BME280;55012;47.562;18.414;2022-12-01T04:51:25;100368.94;;;1.59;100.00
68193;BME280;55012;47.562;18.414;2022-12-01T04:53:50;100375.59;;;1.62;100.00
68193;BME280;55012;47.562;18.414;2022-12-01T04:56:16;100365.72;;;1.62;100.00
68193;BME280;55012;47.562;18.414;2022-12-01T04:58:42;100371.59;;;1.64;100.00
68193;BME280;55012;47.562;18.414;2022-12-01T05:01:11;100364.16;;;1.66;100.00
68193;BME280;55012;47.562;18.414;2022-12-01T05:03:42;100365.50;;;1.69;100.00
68193;BME280;55012;47.562;18.414;2022-12-01T05:06:13;100368.72;;;1.71;100.00
68193;BME280;55012;47.562;18.414;2022-12-01T05:08:39;100367.38;;;1.68;100.00
68193;BME280;55012;47.562;18.414;2022-12-01T05:11:06;100380.72;;;1.68;100.00
68193;BME280;55012;47.562;18.414;2022-12-01T05:13:33;100363.38;;;1.66;100.00
68193;BME280;55012;47.562;18.414;2022-12-01T05:18:33;100384.94;;;1.64;100.00
68193;BME280;55012;47.562;18.414;2022-12-01T05:20:59;100390.81;;;1.61;100.00
68193;BME280;55012;47.562;18.414;2022-12-01T05:23:26;100389.72;;;1.57;100.00
68193;BME280;55012;47.562;18.414;2022-12-01T05:25:52;100393.34;;;1.46;100.00
68193;BME280;55012;47.562;18.414;2022-12-01T05:28:18;100399.16;;;1.38;100.00
68193;BME280;55012;47.562;18.414;2022-12-01T05:30:44;100398.56;;;1.31;100.00
68193;BME280;55012;47.562;18.414;2022-12-01T05:33:09;100398.56;;;1.26;100.00
68193;BME280;55012;47.562;18.414;2022-12-01T05:35:35;100395.31;;;1.24;100.00
68193;BME280;55012;47.562;18.414;2022-12-01T05:38:01;100397.97;;;1.24;100.00
68193;BME280;55012;47.562;18.414;2022-12-01T05:40:26;100388.63;;;1.21;100.00
68193;BME280;55012;47.562;18.414;2022-12-01T05:42:51;100387.84;;;1.21;100.00
68193;BME280;55012;47.562;18.414;2022-12-01T05:45:17;100386.22;;;1.20;100.00
68193;BME280;55012;47.562;18.414;2022-12-01T05:47:42;100384.63;;;1.19;100.00
68193;BME280;55012;47.562;18.414;2022-12-01T05:50:08;100386.50;;;1.18;100.00
68193;BME280;55012;47.562;18.414;2022-12-01T05:52:34;100389.97;;;1.19;100.00
68193;BME280;55012;47.562;18.414;2022-12-01T05:55:01;100387.78;;;1.16;100.00
68193;BME280;55012;47.562;18.414;2022-12-01T05:57:26;100392.84;;;1.12;100.00
68193;BME280;55012;47.562;18.414;2022-12-01T05:59:52;100393.09;;;1.10;100.00
68193;BME280;55012;47.562;18.414;2022-12-01T06:02:17;100398.09;;;1.07;100.00
68193;BME280;55012;47.562;18.414;2022-12-01T06:04:42;100409.53;;;1.02;100.00
68193;BME280;55012;47.562;18.414;2022-12-01T06:07:08;100402.81;;;0.95;100.00
68193;BME280;55012;47.562;18.414;2022-12-01T06:09:34;100406.22;;;0.90;100.00
68193;BME280;55012;47.562;18.414;2022-12-01T06:11:59;100408.88;;;0.90;100.00
68193;BME280;55012;47.562;18.414;2022-12-01T06:14:25;100406.47;;;0.89;100.00
68193;BME280;55012;47.562;18.414;2022-12-01T06:16:50;100403.78;;;0.83;100.00
68193;BME280;55012;47.562;18.414;2022-12-01T06:19:15;100402.97;;;0.83;100.00
68193;BME280;55012;47.562;18.414;2022-12-01T06:21:41;100411.19;;;0.81;100.00
68193;BME280;55012;47.562;18.414;2022-12-01T06:24:06;100412.50;;;0.79;100.00
68193;BME280;55012;47.562;18.414;2022-12-01T06:26:32;100408.50;;;0.76;100.00
68193;BME280;55012;47.562;18.414;2022-12-01T06:28:57;100417.84;;;0.79;100.00
68193;BME280;55012;47.562;18.414;2022-12-01T06:31:23;100411.69;;;0.78;100.00
68193;BME280;55012;47.562;18.414;2022-12-01T06:33:48;100418.91;;;0.78;100.00
68193;BME280;55012;47.562;18.414;2022-12-01T06:36:13;100414.06;;;0.75;100.00
68193;BME280;55012;47.562;18.414;2022-12-01T06:38:39;100414.56;;;0.72;100.00
68193;BME280;55012;47.562;18.414;2022-12-01T06:41:05;100419.88;;;0.72;100.00
68193;BME280;55012;47.562;18.414;2022-12-01T06:43:30;100414.56;;;0.72;100.00
68193;BME280;55012;47.562;18.414;2022-12-01T06:45:56;100413.81;;;0.76;100.00
68193;BME280;55012;47.562;18.414;2022-12-01T06:48:22;100407.72;;;0.81;100.00
68193;BME280;55012;47.562;18.414;2022-12-01T06:50:47;100404.56;;;0.84;100.00
68193;BME280;55012;47.562;18.414;2022-12-01T06:53:13;100412.06;;;0.87;100.00
68193;BME280;55012;47.562;18.414;2022-12-01T06:55:39;100413.66;;;0.88;100.00
68193;BME280;55012;47.562;18.414;2022-12-01T06:58:04;100420.09;;;0.92;100.00
68193;BME280;55012;47.562;18.414;2022-12-01T07:00:30;100420.09;;;0.92;100.00
68193;BME280;55012;47.562;18.414;2022-12-01T07:02:56;100418.50;;;0.91;100.00
68193;BME280;55012;47.562;18.414;2022-12-01T07:05:22;100423.78;;;0.86;100.00
68193;BME280;55012;47.562;18.414;2022-12-01T07:07:47;100430.16;;;0.85;100.00
68193;BME280;55012;47.562;18.414;2022-12-01T07:10:13;100429.59;;;0.83;100.00
68193;BME280;55012;47.562;18.414;2022-12-01T07:12:38;100431.22;;;0.84;100.00
68193;BME280;55012;47.562;18.414;2022-12-01T07:15:05;100438.03;;;0.75;100.00
68193;BME280;55012;47.562;18.414;2022-12-01T07:17:32;100442.75;;;0.68;100.00
68193;BME280;55012;47.562;18.414;2022-12-01T07:19:58;100451.84;;;0.72;100.00
68193;BME280;55012;47.562;18.414;2022-12-01T07:22:23;100445.72;;;0.71;100.00
68193;BME280;55012;47.562;18.414;2022-12-01T07:24:49;100445.53;;;0.78;100.00
68193;BME280;55012;47.562;18.414;2022-12-01T07:27:14;100452.81;;;0.88;100.00
68193;BME280;55012;47.562;18.414;2022-12-01T07:29:40;100450.75;;;0.95;100.00
68193;BME280;55012;47.562;18.414;2022-12-01T07:32:05;100444.97;;;1.03;100.00
68193;BME280;55012;47.562;18.414;2022-12-01T07:34:30;100444.53;;;1.11;100.00
68193;BME280;55012;47.562;18.414;2022-12-01T07:36:56;100451.75;;;1.16;100.00
68193;BME280;55012;47.562;18.414;2022-12-01T07:39:21;100452.88;;;1.20;100.00
68193;BME280;55012;47.562;18.414;2022-12-01T07:41:47;100459.84;;;1.26;100.00
68193;BME280;55012;47.562;18.414;2022-12-01T07:44:12;100461.75;;;1.30;100.00
68193;BME280;55012;47.562;18.414;2022-12-01T07:46:38;100458.34;;;1.35;100.00
68193;BME280;55012;47.562;18.414;2022-12-01T07:49:05;100457.56;;;1.39;100.00
68193;BME280;55012;47.562;18.414;2022-12-01T07:51:31;100457.63;;;1.45;100.00
68193;BME280;55012;47.562;18.414;2022-12-01T07:54:00;100462.69;;;1.46;100.00
68193;BME280;55012;47.562;18.414;2022-12-01T07:56:26;100446.16;;;1.44;100.00
68193;BME280;55012;47.562;18.414;2022-12-01T07:58:51;100455.53;;;1.52;100.00
68193;BME280;55012;47.562;18.414;2022-12-01T08:01:19;100448.63;;;1.56;100.00
68193;BME280;55012;47.562;18.414;2022-12-01T08:03:47;100447.59;;;1.62;100.00
68193;BME280;55012;47.562;18.414;2022-12-01T08:06:13;100448.19;;;1.69;100.00
68193;BME280;55012;47.562;18.414;2022-12-01T08:08:40;100439.41;;;1.74;100.00
68193;BME280;55012;47.562;18.414;2022-12-01T08:11:30;100442.97;;;1.84;100.00
68193;BME280;55012;47.562;18.414;2022-12-01T08:13:55;100452.38;;;1.97;100.00
68193;BME280;55012;47.562;18.414;2022-12-01T08:16:22;100454.28;;;2.07;100.00
68193;BME280;55012;47.562;18.414;2022-12-01T08:18:48;100451.13;;;2.15;100.00
68193;BME280;55012;47.562;18.414;2022-12-01T08:21:16;100453.88;;;2.25;100.00
68193;BME280;55012;47.562;18.414;2022-12-01T08:23:43;100458.72;;;2.33;100.00
68193;BME280;55012;47.562;18.414;2022-12-01T08:26:14;100465.66;;;2.39;100.00
68193;BME280;55012;47.562;18.414;2022-12-01T08:28:40;100463.84;;;2.45;100.00
68193;BME280;55012;47.562;18.414;2022-12-01T08:31:28;100468.69;;;2.53;100.00
68193;BME280;55012;47.562;18.414;2022-12-01T08:33:54;100465.78;;;2.60;100.00
68193;BME280;55012;47.562;18.414;2022-12-01T08:36:20;100476.47;;;2.65;100.00
68193;BME280;55012;47.562;18.414;2022-12-01T08:38:49;100469.28;;;2.70;100.00
68193;BME280;55012;47.562;18.414;2022-12-01T08:41:15;100464.22;;;2.74;100.00
68193;BME280;55012;47.562;18.414;2022-12-01T08:43:41;100471.47;;;2.84;100.00
68193;BME280;55012;47.562;18.414;2022-12-01T08:46:11;100467.19;;;2.88;100.00
68193;BME280;55012;47.562;18.414;2022-12-01T08:48:37;100465.59;;;2.97;100.00
68193;BME280;55012;47.562;18.414;2022-12-01T08:51:14;100466.16;;;3.04;100.00
68193;BME280;55012;47.562;18.414;2022-12-01T08:53:43;100473.66;;;3.07;100.00
68193;BME280;55012;47.562;18.414;2022-12-01T08:58:36;100480.34;;;3.20;100.00
68193;BME280;55012;47.562;18.414;2022-12-01T09:01:07;100480.66;;;3.23;100.00
68193;BME280;55012;47.562;18.414;2022-12-01T09:03:33;100486.78;;;3.29;100.00
68193;BME280;55012;47.562;18.414;2022-12-01T09:06:13;100488.94;;;3.32;100.00
68193;BME280;55012;47.562;18.414;2022-12-01T09:08:39;100491.34;;;3.33;100.00
68193;BME280;55012;47.562;18.414;2022-12-01T09:11:09;100486.28;;;3.32;100.00
68193;BME280;55012;47.562;18.414;2022-12-01T09:13:36;100492.41;;;3.27;100.00
68193;BME280;55012;47.562;18.414;2022-12-01T09:16:06;100487.88;;;3.23;100.00
68193;BME280;55012;47.562;18.414;2022-12-01T09:18:32;100496.66;;;3.18;100.00
68193;BME280;55012;47.562;18.414;2022-12-01T09:20:58;100497.44;;;3.14;100.00
68193;BME280;55012;47.562;18.414;2022-12-01T09:23:24;100493.44;;;3.11;100.00
68193;BME280;55012;47.562;18.414;2022-12-01T09:25:51;100489.97;;;3.10;100.00
68193;BME280;55012;47.562;18.414;2022-12-01T09:28:18;100489.44;;;3.14;100.00
68193;BME280;55012;47.562;18.414;2022-12-01T09:30:45;100487.31;;;3.16;100.00
68193;BME280;55012;47.562;18.414;2022-12-01T09:33:11;100476.34;;;3.17;100.00
68193;BME280;55012;47.562;18.414;2022-12-01T09:35:37;100482.75;;;3.21;100.00
68193;BME280;55012;47.562;18.414;2022-12-01T09:38:02;100479.84;;;3.23;100.00
68193;BME280;55012;47.562;18.414;2022-12-01T09:40:35;100480.13;;;3.31;100.00
68193;BME280;55012;47.562;18.414;2022-12-01T09:43:05;100472.34;;;3.35;100.00
68193;BME280;55012;47.562;18.414;2022-12-01T09:45:34;100483.06;;;3.45;100.00
68193;BME280;55012;47.562;18.414;2022-12-01T09:48:02;100478.78;;;3.54;100.00
68193;BME280;55012;47.562;18.414;2022-12-01T09:50:29;100469.69;;;3.60;100.00
68193;BME280;55012;47.562;18.414;2022-12-01T09:53:02;100462.47;;;3.66;100.00
68193;BME280;55012;47.562;18.414;2022-12-01T09:55:32;100462.72;;;3.70;100.00
68193;BME280;55012;47.562;18.414;2022-12-01T09:57:59;100458.44;;;3.79;100.00
68193;BME280;55012;47.562;18.414;2022-12-01T10:00:28;100460.59;;;3.82;100.00
68193;BME280;55012;47.562;18.414;2022-12-01T10:05:51;100456.28;;;3.86;100.00
68193;BME280;55012;47.562;18.414;2022-12-01T10:08:22;100461.63;;;3.86;100.00
68193;BME280;55012;47.562;18.414;2022-12-01T10:10:50;100457.59;;;3.88;100.00
68193;BME280;55012;47.562;18.414;2022-12-01T10:15:47;100460.50;;;4.12;100.00
68193;BME280;55012;47.562;18.414;2022-12-01T10:21:14;100457.22;;;4.41;100.00
68193;BME280;55012;47.562;18.414;2022-12-01T10:23:43;100453.41;;;4.57;100.00
68193;BME280;55012;47.562;18.414;2022-12-01T10:31:53;100438.78;;;4.84;100.00
68193;BME280;55012;47.562;18.414;2022-12-01T10:34:25;100450.00;;;4.91;100.00
68193;BME280;55012;47.562;18.414;2022-12-01T10:36:51;100446.22;;;4.97;100.00
68193;BME280;55012;47.562;18.414;2022-12-01T10:39:33;100444.06;;;4.99;100.00
68193;BME280;55012;47.562;18.414;2022-12-01T10:45:00;100431.25;;;4.91;100.00
68193;BME280;55012;47.562;18.414;2022-12-01T10:47:27;100438.50;;;4.85;100.00
68193;BME280;55012;47.562;18.414;2022-12-01T10:49:53;100438.06;;;4.73;100.00
68193;BME280;55012;47.562;18.414;2022-12-01T10:52:39;100437.56;;;4.61;100.00
68193;BME280;55012;47.562;18.414;2022-12-01T10:55:28;100422.56;;;4.55;100.00
68193;BME280;55012;47.562;18.414;2022-12-01T10:57:56;100421.81;;;4.49;100.00
68193;BME280;55012;47.562;18.414;2022-12-01T11:00:31;100420.00;;;4.39;100.00
68193;BME280;55012;47.562;18.414;2022-12-01T11:02:58;100417.31;;;4.34;100.00
68193;BME280;55012;47.562;18.414;2022-12-01T11:05:26;100407.69;;;4.28;100.00
68193;BME280;55012;47.562;18.414;2022-12-01T11:07:53;100408.81;;;4.22;100.00
68193;BME280;55012;47.562;18.414;2022-12-01T11:10:29;100409.34;;;4.24;100.00
68193;BME280;55012;47.562;18.414;2022-12-01T11:13:01;100398.09;;;4.22;100.00
68193;BME280;55012;47.562;18.414;2022-12-01T11:15:36;100406.94;;;4.22;100.00
68193;BME280;55012;47.562;18.414;2022-12-01T11:18:28;100400.22;;;4.25;100.00
68193;BME280;55012;47.562;18.414;2022-12-01T11:21:06;100403.97;;;4.24;100.00
68193;BME280;55012;47.562;18.414;2022-12-01T11:23:35;100398.63;;;4.24;100.00
68193;BME280;55012;47.562;18.414;2022-12-01T11:26:25;100391.09;;;4.31;100.00
68193;BME280;55012;47.562;18.414;2022-12-01T11:29:03;100394.53;;;4.42;100.00
68193;BME280;55012;47.562;18.414;2022-12-01T11:31:39;100397.69;;;4.49;100.00
68193;BME280;55012;47.562;18.414;2022-12-01T11:34:32;100392.59;;;4.53;100.00
68193;BME280;55012;47.562;18.414;2022-12-01T11:37:01;100373.53;;;4.54;100.00
68193;BME280;55012;47.562;18.414;2022-12-01T11:39:33;100389.03;;;4.67;100.00
68193;BME280;55012;47.562;18.414;2022-12-01T11:44:52;100389.81;;;4.73;100.00
68193;BME280;55012;47.562;18.414;2022-12-01T11:47:21;100387.13;;;4.73;100.00
68193;BME280;55012;47.562;18.414;2022-12-01T11:50:02;100382.28;;;4.70;100.00
68193;BME280;55012;47.562;18.414;2022-12-01T11:52:32;100380.69;;;4.69;100.00
68193;BME280;55012;47.562;18.414;2022-12-01T11:57:34;100387.13;;;4.73;100.00
68193;BME280;55012;47.562;18.414;2022-12-01T12:00:10;100382.28;;;4.75;100.00
68193;BME280;55012;47.562;18.414;2022-12-01T12:03:08;100372.63;;;4.74;100.00
68193;BME280;55012;47.562;18.414;2022-12-01T12:11:54;100375.97;;;4.95;100.00
68193;BME280;55012;47.562;18.414;2022-12-01T12:14:47;100372.19;;;5.01;100.00
68193;BME280;55012;47.562;18.414;2022-12-01T12:39:05;100370.53;;;5.39;100.00
68193;BME280;55012;47.562;18.414;2022-12-01T12:41:44;100375.13;;;5.33;100.00
68193;BME280;55012;47.562;18.414;2022-12-01T12:49:43;100380.88;;;5.22;100.00
68193;BME280;55012;47.562;18.414;2022-12-01T12:52:15;100371.75;;;5.23;100.00
68193;BME280;55012;47.562;18.414;2022-12-01T12:54:56;100369.78;;;5.28;100.00
68193;BME280;55012;47.562;18.414;2022-12-01T12:59:56;100367.03;;;5.39;100.00
68193;BME280;55012;47.562;18.414;2022-12-01T13:02:38;100369.38;;;5.45;100.00
68193;BME280;55012;47.562;18.414;2022-12-01T13:05:15;100364.56;;;5.47;100.00
68193;BME280;55012;47.562;18.414;2022-12-01T13:13:17;100365.00;;;5.54;100.00
68193;BME280;55012;47.562;18.414;2022-12-01T13:15:46;100370.38;;;5.54;100.00
68193;BME280;55012;47.562;18.414;2022-12-01T13:18:36;100376.03;;;5.53;100.00
68193;BME280;55012;47.562;18.414;2022-12-01T13:21:03;100377.41;;;5.50;100.00
68193;BME280;55012;47.562;18.414;2022-12-01T13:23:31;100372.84;;;5.46;100.00
68193;BME280;55012;47.562;18.414;2022-12-01T13:25:58;100371.84;;;5.42;100.00
68193;BME280;55012;47.562;18.414;2022-12-01T13:28:34;100374.22;;;5.43;100.00
68193;BME280;55012;47.562;18.414;2022-12-01T13:31:10;100362.19;;;5.41;100.00
68193;BME280;55012;47.562;18.414;2022-12-01T13:33:52;100359.78;;;5.39;100.00
68193;BME280;55012;47.562;18.414;2022-12-01T13:36:19;100361.50;;;5.30;100.00
68193;BME280;55012;47.562;18.414;2022-12-01T13:41:29;100361.06;;;5.13;100.00
68193;BME280;55012;47.562;18.414;2022-12-01T13:44:06;100372.38;;;5.10;100.00
68193;BME280;55012;47.562;18.414;2022-12-01T13:49:40;100369.06;;;4.89;100.00
68193;BME280;55012;47.562;18.414;2022-12-01T14:00:26;100354.97;;;4.68;100.00
68193;BME280;55012;47.562;18.414;2022-12-01T14:10:38;100347.06;;;4.47;100.00
68193;BME280;55012;47.562;18.414;2022-12-01T14:13:04;100340.94;;;4.42;100.00
68193;BME280;55012;47.562;18.414;2022-12-01T14:15:40;100338.81;;;4.39;100.00
68193;BME280;55012;47.562;18.414;2022-12-01T14:20:54;100334.34;;;4.24;100.00
68193;BME280;55012;47.562;18.414;2022-12-01T14:23:28;100332.47;;;4.25;100.00
68193;BME280;55012;47.562;18.414;2022-12-01T14:26:01;100334.34;;;4.24;100.00
68193;BME280;55012;47.562;18.414;2022-12-01T14:34:03;100332.25;;;4.11;100.00
68193;BME280;55012;47.562;18.414;2022-12-01T14:39:11;100331.50;;;4.00;100.00
68193;BME280;55012;47.562;18.414;2022-12-01T14:41:57;100331.78;;;3.99;100.00
68193;BME280;55012;47.562;18.414;2022-12-01T14:44:33;100336.06;;;3.94;100.00
68193;BME280;55012;47.562;18.414;2022-12-01T14:52:41;100335.31;;;3.84;100.00
68193;BME280;55012;47.562;18.414;2022-12-01T14:55:22;100322.72;;;3.79;100.00
68193;BME280;55012;47.562;18.414;2022-12-01T14:57:52;100324.63;;;3.74;100.00
68193;BME280;55012;47.562;18.414;2022-12-01T15:00:24;100329.72;;;3.70;100.00
68193;BME280;55012;47.562;18.414;2022-12-01T15:05:23;100327.59;;;3.62;100.00
68193;BME280;55012;47.562;18.414;2022-12-01T15:07:52;100326.81;;;3.61;100.00